sensor_id;sensor_type;location;lat;lon;timestamp;P1;durP1;ratioP1;P2;durP2;ratioP2
11996;SDS011;6058;48.704;9.474;2023-08-17T00:00:40;1.90;;;1.80;;
11996;SDS011;6058;48.704;9.474;2023-08-17T00:03:07;2.85;;;1.90;;
11996;SDS011;6058;48.704;9.474;2023-08-17T00:05:35;2.95;;;1.70;;
11996;SDS011;6058;48.704;9.474;2023-08-17T00:08:02;3.20;;;1.98;;
11996;SDS011;6058;48.704;9.474;2023-08-17T00:10:29;3.58;;;1.90;;
11996;SDS011;6058;48.704;9.474;2023-08-17T00:12:56;3.05;;;2.20;;
11996;SDS011;6058;48.704;9.474;2023-08-17T00:15:23;1.85;;;1.75;;
11996;SDS011;6058;48.704;9.474;2023-08-17T00:20:24;2.55;;;2.03;;
11996;SDS011;6058;48.704;9.474;2023-08-17T00:22:51;2.25;;;1.70;;
11996;SDS011;6058;48.704;9.474;2023-08-17T00:25:18;2.20;;;2.00;;
11996;SDS011;6058;48.704;9.474;2023-08-17T00:27:45;3.35;;;2.15;;
11996;SDS011;6058;48.704;9.474;2023-08-17T00:30:13;2.28;;;2.08;;
11996;SDS011;6058;48.704;9.474;2023-08-17T00:32:40;3.20;;;1.95;;
11996;SDS011;6058;48.704;9.474;2023-08-17T00:35:07;3.58;;;2.00;;
11996;SDS011;6058;48.704;9.474;2023-08-17T00:37:36;3.13;;;2.05;;
11996;SDS011;6058;48.704;9.474;2023-08-17T00:40:05;2.78;;;2.20;;
11996;SDS011;6058;48.704;9.474;2023-08-17T00:42:32;2.10;;;1.90;;
11996;SDS011;6058;48.704;9.474;2023-08-17T00:44:59;3.30;;;2.22;;
11996;SDS011;6058;48.704;9.474;2023-08-17T00:47:27;2.15;;;1.90;;
11996;SDS011;6058;48.704;9.474;2023-08-17T00:49:55;2.30;;;2.10;;
11996;SDS011;6058;48.704;9.474;2023-08-17T00:52:22;3.17;;;1.98;;
11996;SDS011;6058;48.704;9.474;2023-08-17T00:54:51;5.80;;;1.90;;
11996;SDS011;6058;48.704;9.474;2023-08-17T00:57:18;2.15;;;1.85;;
11996;SDS011;6058;48.704;9.474;2023-08-17T00:59:46;1.90;;;1.67;;
11996;SDS011;6058;48.704;9.474;2023-08-17T01:02:13;4.05;;;2.10;;
11996;SDS011;6058;48.704;9.474;2023-08-17T01:04:40;2.13;;;1.92;;
11996;SDS011;6058;48.704;9.474;2023-08-17T01:07:07;2.05;;;1.70;;
11996;SDS011;6058;48.704;9.474;2023-08-17T01:09:34;3.15;;;2.10;;
11996;SDS011;6058;48.704;9.474;2023-08-17T01:12:05;2.95;;;1.90;;
11996;SDS011;6058;48.704;9.474;2023-08-17T01:14:36;1.90;;;1.80;;
11996;SDS011;6058;48.704;9.474;2023-08-17T01:17:06;1.88;;;1.75;;
11996;SDS011;6058;48.704;9.474;2023-08-17T01:19:33;4.57;;;2.28;;
11996;SDS011;6058;48.704;9.474;2023-08-17T01:22:03;2.28;;;1.90;;
11996;SDS011;6058;48.704;9.474;2023-08-17T01:24:31;3.08;;;1.70;;
11996;SDS011;6058;48.704;9.474;2023-08-17T01:26:58;1.58;;;1.48;;
11996;SDS011;6058;48.704;9.474;2023-08-17T01:29:26;4.43;;;1.80;;
11996;SDS011;6058;48.704;9.474;2023-08-17T01:31:54;5.45;;;2.53;;
11996;SDS011;6058;48.704;9.474;2023-08-17T01:34:25;3.85;;;2.00;;
11996;SDS011;6058;48.704;9.474;2023-08-17T01:36:53;2.45;;;1.80;;
11996;SDS011;6058;48.704;9.474;2023-08-17T01:39:21;2.08;;;1.77;;
11996;SDS011;6058;48.704;9.474;2023-08-17T01:41:50;2.17;;;2.03;;
11996;SDS011;6058;48.704;9.474;2023-08-17T01:44:18;1.50;;;1.40;;
11996;SDS011;6058;48.704;9.474;2023-08-17T01:46:45;2.03;;;1.83;;
11996;SDS011;6058;48.704;9.474;2023-08-17T01:49:12;1.70;;;1.60;;
11996;SDS011;6058;48.704;9.474;2023-08-17T01:51:40;2.38;;;1.95;;
11996;SDS011;6058;48.704;9.474;2023-08-17T01:54:07;1.70;;;1.60;;
11996;SDS011;6058;48.704;9.474;2023-08-17T01:56:35;3.70;;;1.85;;
11996;SDS011;6058;48.704;9.474;2023-08-17T01:59:03;2.03;;;1.63;;
11996;SDS011;6058;48.704;9.474;2023-08-17T02:01:30;2.00;;;1.75;;
11996;SDS011;6058;48.704;9.474;2023-08-17T02:04:00;5.85;;;1.90;;
11996;SDS011;6058;48.704;9.474;2023-08-17T02:06:28;3.05;;;1.73;;
11996;SDS011;6058;48.704;9.474;2023-08-17T02:08:55;1.98;;;1.80;;
11996;SDS011;6058;48.704;9.474;2023-08-17T02:11:22;2.65;;;1.85;;
11996;SDS011;6058;48.704;9.474;2023-08-17T02:13:49;2.00;;;1.88;;
11996;SDS011;6058;48.704;9.474;2023-08-17T02:16:17;2.08;;;1.90;;
11996;SDS011;6058;48.704;9.474;2023-08-17T02:18:45;2.20;;;2.00;;
11996;SDS011;6058;48.704;9.474;2023-08-17T02:21:12;3.03;;;2.17;;
11996;SDS011;6058;48.704;9.474;2023-08-17T02:23:39;2.10;;;1.90;;
11996;SDS011;6058;48.704;9.474;2023-08-17T02:26:06;2.58;;;2.08;;
11996;SDS011;6058;48.704;9.474;2023-08-17T02:28:33;3.92;;;1.90;;
11996;SDS011;6058;48.704;9.474;2023-08-17T02:31:00;2.05;;;1.42;;
11996;SDS011;6058;48.704;9.474;2023-08-17T02:33:29;6.25;;;2.10;;
11996;SDS011;6058;48.704;9.474;2023-08-17T02:35:56;2.55;;;1.98;;
11996;SDS011;6058;48.704;9.474;2023-08-17T02:38:23;2.00;;;1.60;;
11996;SDS011;6058;48.704;9.474;2023-08-17T02:40:50;2.78;;;1.73;;
11996;SDS011;6058;48.704;9.474;2023-08-17T02:43:17;1.77;;;1.67;;
11996;SDS011;6058;48.704;9.474;2023-08-17T02:45:56;1.55;;;1.48;;
11996;SDS011;6058;48.704;9.474;2023-08-17T02:48:24;3.83;;;2.10;;
11996;SDS011;6058;48.704;9.474;2023-08-17T02:50:53;2.17;;;1.85;;
11996;SDS011;6058;48.704;9.474;2023-08-17T02:53:20;2.85;;;1.98;;
11996;SDS011;6058;48.704;9.474;2023-08-17T02:55:47;3.42;;;2.10;;
11996;SDS011;6058;48.704;9.474;2023-08-17T02:58:14;3.10;;;1.73;;
11996;SDS011;6058;48.704;9.474;2023-08-17T03:00:41;5.03;;;1.90;;
11996;SDS011;6058;48.704;9.474;2023-08-17T03:03:08;3.05;;;2.13;;
11996;SDS011;6058;48.704;9.474;2023-08-17T03:05:35;2.10;;;1.90;;
11996;SDS011;6058;48.704;9.474;2023-08-17T03:08:04;2.53;;;2.03;;
11996;SDS011;6058;48.704;9.474;2023-08-17T03:10:32;3.22;;;1.90;;
11996;SDS011;6058;48.704;9.474;2023-08-17T03:12:59;5.50;;;2.30;;
11996;SDS011;6058;48.704;9.474;2023-08-17T03:15:26;2.80;;;2.00;;
11996;SDS011;6058;48.704;9.474;2023-08-17T03:17:53;2.67;;;1.85;;
11996;SDS011;6058;48.704;9.474;2023-08-17T03:20:20;3.28;;;2.33;;
11996;SDS011;6058;48.704;9.474;2023-08-17T03:22:47;2.20;;;1.90;;
11996;SDS011;6058;48.704;9.474;2023-08-17T03:25:16;2.50;;;1.90;;
11996;SDS011;6058;48.704;9.474;2023-08-17T03:27:43;1.58;;;1.50;;
11996;SDS011;6058;48.704;9.474;2023-08-17T03:30:11;1.95;;;1.85;;
11996;SDS011;6058;48.704;9.474;2023-08-17T03:32:38;2.20;;;1.85;;
11996;SDS011;6058;48.704;9.474;2023-08-17T03:35:08;4.43;;;1.85;;
11996;SDS011;6058;48.704;9.474;2023-08-17T03:37:39;3.30;;;1.80;;
11996;SDS011;6058;48.704;9.474;2023-08-17T03:40:06;2.13;;;1.92;;
11996;SDS011;6058;48.704;9.474;2023-08-17T03:42:35;3.20;;;1.90;;
11996;SDS011;6058;48.704;9.474;2023-08-17T03:45:02;2.30;;;2.10;;
11996;SDS011;6058;48.704;9.474;2023-08-17T03:47:29;2.58;;;1.95;;
11996;SDS011;6058;48.704;9.474;2023-08-17T03:49:57;2.58;;;1.73;;
11996;SDS011;6058;48.704;9.474;2023-08-17T03:52:37;4.00;;;2.00;;
11996;SDS011;6058;48.704;9.474;2023-08-17T03:55:04;3.17;;;1.98;;
11996;SDS011;6058;48.704;9.474;2023-08-17T03:57:32;4.93;;;2.22;;
11996;SDS011;6058;48.704;9.474;2023-08-17T04:00:01;3.67;;;1.95;;
11996;SDS011;6058;48.704;9.474;2023-08-17T04:02:28;2.15;;;1.92;;
11996;SDS011;6058;48.704;9.474;2023-08-17T04:04:55;2.72;;;1.95;;
11996;SDS011;6058;48.704;9.474;2023-08-17T04:07:28;4.70;;;2.15;;
11996;SDS011;6058;48.704;9.474;2023-08-17T04:09:55;1.67;;;1.58;;
11996;SDS011;6058;48.704;9.474;2023-08-17T04:12:22;4.20;;;2.20;;
11996;SDS011;6058;48.704;9.474;2023-08-17T04:14:49;2.13;;;1.95;;
11996;SDS011;6058;48.704;9.474;2023-08-17T04:17:18;4.32;;;1.80;;
11996;SDS011;6058;48.704;9.474;2023-08-17T04:19:46;3.03;;;1.90;;
11996;SDS011;6058;48.704;9.474;2023-08-17T04:22:13;3.72;;;1.90;;
11996;SDS011;6058;48.704;9.474;2023-08-17T04:24:40;4.05;;;2.70;;
11996;SDS011;6058;48.704;9.474;2023-08-17T04:27:07;3.50;;;2.20;;
11996;SDS011;6058;48.704;9.474;2023-08-17T04:29:34;4.38;;;1.92;;
11996;SDS011;6058;48.704;9.474;2023-08-17T04:32:01;3.17;;;2.35;;
11996;SDS011;6058;48.704;9.474;2023-08-17T04:34:30;3.22;;;2.55;;
11996;SDS011;6058;48.704;9.474;2023-08-17T04:36:57;3.90;;;2.83;;
11996;SDS011;6058;48.704;9.474;2023-08-17T04:39:24;5.28;;;3.13;;
11996;SDS011;6058;48.704;9.474;2023-08-17T04:41:51;3.75;;;2.17;;
11996;SDS011;6058;48.704;9.474;2023-08-17T04:44:18;7.32;;;2.97;;
11996;SDS011;6058;48.704;9.474;2023-08-17T04:46:45;6.20;;;3.10;;
11996;SDS011;6058;48.704;9.474;2023-08-17T04:49:12;5.85;;;3.42;;
11996;SDS011;6058;48.704;9.474;2023-08-17T04:51:41;7.97;;;3.92;;
11996;SDS011;6058;48.704;9.474;2023-08-17T04:54:08;4.68;;;3.22;;
11996;SDS011;6058;48.704;9.474;2023-08-17T04:56:35;8.63;;;3.33;;
11996;SDS011;6058;48.704;9.474;2023-08-17T04:59:02;8.03;;;3.40;;
11996;SDS011;6058;48.704;9.474;2023-08-17T05:01:30;8.88;;;3.63;;
11996;SDS011;6058;48.704;9.474;2023-08-17T05:03:57;8.65;;;3.92;;
11996;SDS011;6058;48.704;9.474;2023-08-17T05:06:27;7.43;;;4.03;;
11996;SDS011;6058;48.704;9.474;2023-08-17T05:08:56;12.88;;;5.57;;
11996;SDS011;6058;48.704;9.474;2023-08-17T05:11:23;12.93;;;5.87;;
11996;SDS011;6058;48.704;9.474;2023-08-17T05:13:50;5.85;;;4.10;;
11996;SDS011;6058;48.704;9.474;2023-08-17T05:16:17;10.30;;;5.13;;
11996;SDS011;6058;48.704;9.474;2023-08-17T05:18:44;9.25;;;4.38;;
11996;SDS011;6058;48.704;9.474;2023-08-17T05:21:11;7.63;;;4.23;;
11996;SDS011;6058;48.704;9.474;2023-08-17T05:23:38;10.52;;;4.50;;
11996;SDS011;6058;48.704;9.474;2023-08-17T05:26:07;10.23;;;5.60;;
11996;SDS011;6058;48.704;9.474;2023-08-17T05:28:34;10.43;;;5.87;;
11996;SDS011;6058;48.704;9.474;2023-08-17T05:31:02;7.87;;;4.97;;
11996;SDS011;6058;48.704;9.474;2023-08-17T05:33:30;10.63;;;5.97;;
11996;SDS011;6058;48.704;9.474;2023-08-17T05:35:57;12.90;;;6.60;;
11996;SDS011;6058;48.704;9.474;2023-08-17T05:38:24;10.97;;;5.17;;
11996;SDS011;6058;48.704;9.474;2023-08-17T05:40:54;15.20;;;7.73;;
11996;SDS011;6058;48.704;9.474;2023-08-17T05:43:22;14.70;;;6.65;;
11996;SDS011;6058;48.704;9.474;2023-08-17T05:45:49;9.70;;;5.30;;
11996;SDS011;6058;48.704;9.474;2023-08-17T05:48:18;11.25;;;5.80;;
11996;SDS011;6058;48.704;9.474;2023-08-17T05:50:45;13.48;;;6.90;;
11996;SDS011;6058;48.704;9.474;2023-08-17T05:53:13;9.77;;;5.43;;
11996;SDS011;6058;48.704;9.474;2023-08-17T05:55:40;12.55;;;6.93;;
11996;SDS011;6058;48.704;9.474;2023-08-17T05:58:07;15.18;;;6.53;;
11996;SDS011;6058;48.704;9.474;2023-08-17T06:00:36;10.60;;;6.97;;
11996;SDS011;6058;48.704;9.474;2023-08-17T06:03:03;11.35;;;8.25;;
11996;SDS011;6058;48.704;9.474;2023-08-17T06:05:30;14.70;;;8.52;;
11996;SDS011;6058;48.704;9.474;2023-08-17T06:07:57;13.80;;;10.25;;
11996;SDS011;6058;48.704;9.474;2023-08-17T06:10:25;9.77;;;6.38;;
11996;SDS011;6058;48.704;9.474;2023-08-17T06:12:52;19.30;;;11.20;;
11996;SDS011;6058;48.704;9.474;2023-08-17T06:15:19;13.20;;;9.20;;
11996;SDS011;6058;48.704;9.474;2023-08-17T06:17:48;14.18;;;9.40;;
11996;SDS011;6058;48.704;9.474;2023-08-17T06:20:16;18.13;;;10.95;;
11996;SDS011;6058;48.704;9.474;2023-08-17T06:22:44;16.00;;;9.77;;
11996;SDS011;6058;48.704;9.474;2023-08-17T06:25:11;11.00;;;7.72;;
11996;SDS011;6058;48.704;9.474;2023-08-17T06:27:41;13.27;;;9.07;;
11996;SDS011;6058;48.704;9.474;2023-08-17T06:30:09;10.80;;;7.27;;
11996;SDS011;6058;48.704;9.474;2023-08-17T06:32:36;9.60;;;6.83;;
11996;SDS011;6058;48.704;9.474;2023-08-17T06:35:06;12.05;;;8.73;;
11996;SDS011;6058;48.704;9.474;2023-08-17T06:37:33;10.27;;;7.65;;
11996;SDS011;6058;48.704;9.474;2023-08-17T06:40:00;14.18;;;8.45;;
11996;SDS011;6058;48.704;9.474;2023-08-17T06:42:28;11.68;;;7.82;;
11996;SDS011;6058;48.704;9.474;2023-08-17T06:44:55;12.40;;;9.27;;
11996;SDS011;6058;48.704;9.474;2023-08-17T06:47:22;10.32;;;8.15;;
11996;SDS011;6058;48.704;9.474;2023-08-17T06:49:49;14.23;;;9.68;;
11996;SDS011;6058;48.704;9.474;2023-08-17T06:52:18;13.63;;;9.50;;
11996;SDS011;6058;48.704;9.474;2023-08-17T06:54:45;13.55;;;8.07;;
11996;SDS011;6058;48.704;9.474;2023-08-17T06:57:12;13.50;;;8.48;;
11996;SDS011;6058;48.704;9.474;2023-08-17T06:59:39;12.32;;;8.98;;
11996;SDS011;6058;48.704;9.474;2023-08-17T07:02:06;13.50;;;9.98;;
11996;SDS011;6058;48.704;9.474;2023-08-17T07:04:33;14.52;;;9.48;;
11996;SDS011;6058;48.704;9.474;2023-08-17T07:07:00;12.02;;;8.25;;
11996;SDS011;6058;48.704;9.474;2023-08-17T07:09:31;14.45;;;9.30;;
11996;SDS011;6058;48.704;9.474;2023-08-17T07:11:58;15.23;;;10.38;;
11996;SDS011;6058;48.704;9.474;2023-08-17T07:20:13;11.73;;;8.45;;
11996;SDS011;6058;48.704;9.474;2023-08-17T07:22:56;16.55;;;10.80;;
11996;SDS011;6058;48.704;9.474;2023-08-17T07:25:59;14.45;;;9.32;;
11996;SDS011;6058;48.704;9.474;2023-08-17T07:28:42;12.55;;;9.68;;
11996;SDS011;6058;48.704;9.474;2023-08-17T07:31:27;9.23;;;8.23;;
11996;SDS011;6058;48.704;9.474;2023-08-17T07:34:18;12.43;;;8.85;;
11996;SDS011;6058;48.704;9.474;2023-08-17T07:36:53;12.90;;;9.32;;
11996;SDS011;6058;48.704;9.474;2023-08-17T07:40:14;12.45;;;8.27;;
11996;SDS011;6058;48.704;9.474;2023-08-17T07:42:32;8.00;;;6.60;;
11996;SDS011;6058;48.704;9.474;2023-08-17T07:45:16;13.55;;;9.23;;
11996;SDS011;6058;48.704;9.474;2023-08-17T07:47:55;10.50;;;7.85;;
11996;SDS011;6058;48.704;9.474;2023-08-17T07:50:48;10.25;;;8.80;;
11996;SDS011;6058;48.704;9.474;2023-08-17T07:53:22;12.88;;;8.65;;
11996;SDS011;6058;48.704;9.474;2023-08-17T07:56:02;8.48;;;6.47;;
11996;SDS011;6058;48.704;9.474;2023-08-17T08:02:05;10.60;;;8.43;;
11996;SDS011;6058;48.704;9.474;2023-08-17T08:04:38;8.80;;;7.38;;
11996;SDS011;6058;48.704;9.474;2023-08-17T08:07:13;10.48;;;8.27;;
11996;SDS011;6058;48.704;9.474;2023-08-17T08:09:41;8.90;;;7.03;;
11996;SDS011;6058;48.704;9.474;2023-08-17T08:12:09;8.88;;;6.50;;
11996;SDS011;6058;48.704;9.474;2023-08-17T08:14:40;9.13;;;6.95;;
11996;SDS011;6058;48.704;9.474;2023-08-17T08:17:17;7.75;;;5.20;;
11996;SDS011;6058;48.704;9.474;2023-08-17T08:20:07;8.27;;;6.97;;
11996;SDS011;6058;48.704;9.474;2023-08-17T08:22:56;9.98;;;7.28;;
11996;SDS011;6058;48.704;9.474;2023-08-17T08:25:33;11.00;;;8.30;;
11996;SDS011;6058;48.704;9.474;2023-08-17T08:28:03;10.18;;;8.50;;
11996;SDS011;6058;48.704;9.474;2023-08-17T08:30:44;9.05;;;6.85;;
11996;SDS011;6058;48.704;9.474;2023-08-17T08:33:20;10.27;;;7.80;;
11996;SDS011;6058;48.704;9.474;2023-08-17T08:35:55;11.32;;;7.32;;
11996;SDS011;6058;48.704;9.474;2023-08-17T08:38:34;7.82;;;5.95;;
11996;SDS011;6058;48.704;9.474;2023-08-17T08:41:20;11.10;;;8.13;;
11996;SDS011;6058;48.704;9.474;2023-08-17T08:43:54;11.73;;;8.73;;
11996;SDS011;6058;48.704;9.474;2023-08-17T08:46:30;8.95;;;7.45;;
11996;SDS011;6058;48.704;9.474;2023-08-17T08:49:28;9.45;;;7.22;;
11996;SDS011;6058;48.704;9.474;2023-08-17T08:52:07;9.57;;;7.93;;
11996;SDS011;6058;48.704;9.474;2023-08-17T08:54:49;9.50;;;7.75;;
11996;SDS011;6058;48.704;9.474;2023-08-17T08:57:26;7.03;;;6.32;;
11996;SDS011;6058;48.704;9.474;2023-08-17T09:00:36;10.65;;;8.25;;
11996;SDS011;6058;48.704;9.474;2023-08-17T09:03:19;9.95;;;8.60;;
11996;SDS011;6058;48.704;9.474;2023-08-17T09:08:58;8.85;;;7.10;;
11996;SDS011;6058;48.704;9.474;2023-08-17T09:11:40;11.02;;;8.27;;
11996;SDS011;6058;48.704;9.474;2023-08-17T09:14:17;10.65;;;8.10;;
11996;SDS011;6058;48.704;9.474;2023-08-17T09:16:48;8.02;;;7.15;;
11996;SDS011;6058;48.704;9.474;2023-08-17T09:19:25;8.40;;;6.88;;
11996;SDS011;6058;48.704;9.474;2023-08-17T09:22:02;10.98;;;7.95;;
11996;SDS011;6058;48.704;9.474;2023-08-17T09:27:21;7.72;;;6.93;;
11996;SDS011;6058;48.704;9.474;2023-08-17T09:30:02;8.32;;;6.97;;
11996;SDS011;6058;48.704;9.474;2023-08-17T09:32:41;10.20;;;7.65;;
11996;SDS011;6058;48.704;9.474;2023-08-17T09:35:13;6.93;;;6.20;;
11996;SDS011;6058;48.704;9.474;2023-08-17T09:37:56;9.45;;;5.55;;
11996;SDS011;6058;48.704;9.474;2023-08-17T09:40:46;7.18;;;6.47;;
11996;SDS011;6058;48.704;9.474;2023-08-17T09:43:35;7.55;;;6.75;;
11996;SDS011;6058;48.704;9.474;2023-08-17T09:54:06;5.85;;;5.25;;
11996;SDS011;6058;48.704;9.474;2023-08-17T09:57:08;7.00;;;5.60;;
11996;SDS011;6058;48.704;9.474;2023-08-17T09:59:55;7.10;;;5.45;;
11996;SDS011;6058;48.704;9.474;2023-08-17T10:02:48;5.90;;;5.30;;
11996;SDS011;6058;48.704;9.474;2023-08-17T10:05:20;5.65;;;4.97;;
11996;SDS011;6058;48.704;9.474;2023-08-17T10:07:57;6.30;;;5.28;;
11996;SDS011;6058;48.704;9.474;2023-08-17T10:10:37;6.22;;;5.63;;
11996;SDS011;6058;48.704;9.474;2023-08-17T10:13:24;6.32;;;5.63;;
11996;SDS011;6058;48.704;9.474;2023-08-17T10:16:19;7.38;;;5.80;;
11996;SDS011;6058;48.704;9.474;2023-08-17T10:19:09;7.18;;;5.88;;
11996;SDS011;6058;48.704;9.474;2023-08-17T10:21:48;7.57;;;5.80;;
11996;SDS011;6058;48.704;9.474;2023-08-17T10:24:41;6.32;;;5.38;;
11996;SDS011;6058;48.704;9.474;2023-08-17T10:52:31;7.00;;;4.78;;
11996;SDS011;6058;48.704;9.474;2023-08-17T10:55:16;4.53;;;4.18;;
11996;SDS011;6058;48.704;9.474;2023-08-17T10:57:54;4.85;;;4.45;;
11996;SDS011;6058;48.704;9.474;2023-08-17T11:00:36;4.95;;;4.43;;
11996;SDS011;6058;48.704;9.474;2023-08-17T11:03:25;4.53;;;4.10;;
11996;SDS011;6058;48.704;9.474;2023-08-17T11:12:35;4.25;;;3.92;;
11996;SDS011;6058;48.704;9.474;2023-08-17T11:15:26;5.32;;;4.85;;
11996;SDS011;6058;48.704;9.474;2023-08-17T11:47:18;5.55;;;4.20;;
11996;SDS011;6058;48.704;9.474;2023-08-17T11:49:59;4.78;;;4.03;;
11996;SDS011;6058;48.704;9.474;2023-08-17T11:52:40;4.32;;;3.97;;
11996;SDS011;6058;48.704;9.474;2023-08-17T11:55:10;7.05;;;4.70;;
11996;SDS011;6058;48.704;9.474;2023-08-17T11:57:52;6.35;;;4.78;;
11996;SDS011;6058;48.704;9.474;2023-08-17T12:00:36;5.20;;;4.22;;
11996;SDS011;6058;48.704;9.474;2023-08-17T12:06:36;7.75;;;4.30;;
11996;SDS011;6058;48.704;9.474;2023-08-17T12:30:03;4.57;;;3.67;;
11996;SDS011;6058;48.704;9.474;2023-08-17T12:33:00;4.20;;;3.90;;
11996;SDS011;6058;48.704;9.474;2023-08-17T12:41:00;4.72;;;4.40;;
11996;SDS011;6058;48.704;9.474;2023-08-17T12:43:45;5.60;;;4.18;;
11996;SDS011;6058;48.704;9.474;2023-08-17T12:49:45;5.15;;;4.53;;
11996;SDS011;6058;48.704;9.474;2023-08-17T12:57:35;7.90;;;4.68;;
11996;SDS011;6058;48.704;9.474;2023-08-17T13:00:20;5.95;;;4.40;;
11996;SDS011;6058;48.704;9.474;2023-08-17T13:02:59;5.10;;;4.70;;
11996;SDS011;6058;48.704;9.474;2023-08-17T13:05:36;5.45;;;4.95;;
11996;SDS011;6058;48.704;9.474;2023-08-17T13:08:13;6.38;;;5.50;;
11996;SDS011;6058;48.704;9.474;2023-08-17T13:10:47;9.93;;;7.68;;
11996;SDS011;6058;48.704;9.474;2023-08-17T13:13:20;6.72;;;5.78;;
11996;SDS011;6058;48.704;9.474;2023-08-17T13:15:59;6.47;;;5.72;;
11996;SDS011;6058;48.704;9.474;2023-08-17T13:18:51;7.88;;;5.97;;
11996;SDS011;6058;48.704;9.474;2023-08-17T13:32:04;6.95;;;6.10;;
11996;SDS011;6058;48.704;9.474;2023-08-17T13:37:10;7.10;;;6.50;;
11996;SDS011;6058;48.704;9.474;2023-08-17T13:39:55;7.35;;;6.40;;
11996;SDS011;6058;48.704;9.474;2023-08-17T13:50:36;6.45;;;5.85;;
11996;SDS011;6058;48.704;9.474;2023-08-17T13:53:17;8.30;;;6.22;;
11996;SDS011;6058;48.704;9.474;2023-08-17T13:59:21;10.55;;;7.40;;
11996;SDS011;6058;48.704;9.474;2023-08-17T14:02:14;8.65;;;6.03;;
11996;SDS011;6058;48.704;9.474;2023-08-17T14:05:09;7.82;;;5.85;;
11996;SDS011;6058;48.704;9.474;2023-08-17T14:08:10;7.03;;;6.35;;
11996;SDS011;6058;48.704;9.474;2023-08-17T14:24:01;7.20;;;6.50;;
11996;SDS011;6058;48.704;9.474;2023-08-17T14:27:11;8.20;;;6.18;;
11996;SDS011;6058;48.704;9.474;2023-08-17T14:30:07;6.65;;;5.97;;
11996;SDS011;6058;48.704;9.474;2023-08-17T14:32:57;7.57;;;6.18;;
11996;SDS011;6058;48.704;9.474;2023-08-17T14:35:47;6.57;;;5.60;;
11996;SDS011;6058;48.704;9.474;2023-08-17T14:49:37;10.75;;;6.28;;
11996;SDS011;6058;48.704;9.474;2023-08-17T14:52:22;7.40;;;6.63;;
11996;SDS011;6058;48.704;9.474;2023-08-17T15:03:01;8.95;;;6.38;;
11996;SDS011;6058;48.704;9.474;2023-08-17T15:05:52;7.03;;;5.55;;
11996;SDS011;6058;48.704;9.474;2023-08-17T15:08:44;11.63;;;6.72;;
11996;SDS011;6058;48.704;9.474;2023-08-17T15:11:49;6.80;;;5.43;;
11996;SDS011;6058;48.704;9.474;2023-08-17T15:14:34;6.20;;;5.63;;
11996;SDS011;6058;48.704;9.474;2023-08-17T15:17:38;6.55;;;5.95;;
11996;SDS011;6058;48.704;9.474;2023-08-17T15:20:32;9.85;;;5.07;;
11996;SDS011;6058;48.704;9.474;2023-08-17T15:23:20;7.15;;;5.65;;
11996;SDS011;6058;48.704;9.474;2023-08-17T15:28:29;5.55;;;5.05;;
11996;SDS011;6058;48.704;9.474;2023-08-17T15:31:37;8.75;;;4.88;;
11996;SDS011;6058;48.704;9.474;2023-08-17T15:34:26;5.45;;;4.75;;
11996;SDS011;6058;48.704;9.474;2023-08-17T15:37:21;5.68;;;4.90;;
11996;SDS011;6058;48.704;9.474;2023-08-17T15:48:22;8.18;;;5.63;;
11996;SDS011;6058;48.704;9.474;2023-08-17T15:51:05;5.88;;;5.38;;
11996;SDS011;6058;48.704;9.474;2023-08-17T15:53:50;5.80;;;4.85;;
11996;SDS011;6058;48.704;9.474;2023-08-17T15:56:54;6.53;;;5.03;;
11996;SDS011;6058;48.704;9.474;2023-08-17T15:59:58;6.10;;;4.95;;
11996;SDS011;6058;48.704;9.474;2023-08-17T16:02:56;7.03;;;4.68;;
11996;SDS011;6058;48.704;9.474;2023-08-17T16:24:47;6.78;;;5.10;;
11996;SDS011;6058;48.704;9.474;2023-08-17T16:41:00;6.15;;;5.53;;
11996;SDS011;6058;48.704;9.474;2023-08-17T16:43:34;5.82;;;5.32;;
11996;SDS011;6058;48.704;9.474;2023-08-17T16:49:31;8.48;;;5.53;;
11996;SDS011;6058;48.704;9.474;2023-08-17T16:52:33;8.70;;;5.45;;
11996;SDS011;6058;48.704;9.474;2023-08-17T16:55:14;5.90;;;5.40;;
11996;SDS011;6058;48.704;9.474;2023-08-17T16:58:09;5.63;;;5.13;;
11996;SDS011;6058;48.704;9.474;2023-08-17T17:00:57;5.82;;;5.07;;
11996;SDS011;6058;48.704;9.474;2023-08-17T17:03:50;6.85;;;5.07;;
11996;SDS011;6058;48.704;9.474;2023-08-17T17:10:02;8.10;;;5.85;;
11996;SDS011;6058;48.704;9.474;2023-08-17T17:13:03;6.75;;;5.55;;
11996;SDS011;6058;48.704;9.474;2023-08-17T17:29:14;6.95;;;6.25;;
11996;SDS011;6058;48.704;9.474;2023-08-17T17:32:07;6.90;;;6.10;;
11996;SDS011;6058;48.704;9.474;2023-08-17T17:34:50;7.50;;;6.80;;
11996;SDS011;6058;48.704;9.474;2023-08-17T18:03:59;9.60;;;6.93;;
11996;SDS011;6058;48.704;9.474;2023-08-17T18:06:47;7.75;;;7.05;;
11996;SDS011;6058;48.704;9.474;2023-08-17T18:12:04;8.23;;;6.97;;
11996;SDS011;6058;48.704;9.474;2023-08-17T18:18:06;7.30;;;6.55;;
11996;SDS011;6058;48.704;9.474;2023-08-17T18:21:00;7.95;;;7.18;;
11996;SDS011;6058;48.704;9.474;2023-08-17T18:23:46;8.93;;;5.90;;
11996;SDS011;6058;48.704;9.474;2023-08-17T18:32:13;6.82;;;6.20;;
11996;SDS011;6058;48.704;9.474;2023-08-17T18:35:31;7.47;;;6.63;;
11996;SDS011;6058;48.704;9.474;2023-08-17T18:38:25;6.43;;;5.82;;
11996;SDS011;6058;48.704;9.474;2023-08-17T18:41:19;6.82;;;5.88;;
11996;SDS011;6058;48.704;9.474;2023-08-17T18:43:59;8.43;;;6.75;;
11996;SDS011;6058;48.704;9.474;2023-08-17T18:46:49;8.88;;;6.22;;
11996;SDS011;6058;48.704;9.474;2023-08-17T18:49:47;7.05;;;6.40;;
11996;SDS011;6058;48.704;9.474;2023-08-17T18:52:38;6.57;;;5.93;;
11996;SDS011;6058;48.704;9.474;2023-08-17T18:55:50;7.00;;;6.25;;
11996;SDS011;6058;48.704;9.474;2023-08-17T18:58:42;8.98;;;7.47;;
11996;SDS011;6058;48.704;9.474;2023-08-17T19:01:41;10.43;;;7.35;;
11996;SDS011;6058;48.704;9.474;2023-08-17T19:04:34;8.52;;;7.72;;
11996;SDS011;6058;48.704;9.474;2023-08-17T19:07:19;7.47;;;6.55;;
11996;SDS011;6058;48.704;9.474;2023-08-17T19:10:11;9.13;;;7.32;;
11996;SDS011;6058;48.704;9.474;2023-08-17T19:12:47;7.72;;;6.90;;
11996;SDS011;6058;48.704;9.474;2023-08-17T19:15:25;14.70;;;7.60;;
11996;SDS011;6058;48.704;9.474;2023-08-17T19:17:53;7.72;;;6.80;;
11996;SDS011;6058;48.704;9.474;2023-08-17T19:20:45;9.50;;;6.93;;
11996;SDS011;6058;48.704;9.474;2023-08-17T19:23:29;7.63;;;6.25;;
11996;SDS011;6058;48.704;9.474;2023-08-17T19:26:19;9.07;;;6.45;;
11996;SDS011;6058;48.704;9.474;2023-08-17T19:29:10;7.00;;;6.35;;
11996;SDS011;6058;48.704;9.474;2023-08-17T19:31:41;7.20;;;6.50;;
11996;SDS011;6058;48.704;9.474;2023-08-17T19:34:11;7.38;;;6.50;;
11996;SDS011;6058;48.704;9.474;2023-08-17T19:37:04;6.97;;;6.28;;
11996;SDS011;6058;48.704;9.474;2023-08-17T19:39:53;8.98;;;7.13;;
11996;SDS011;6058;48.704;9.474;2023-08-17T19:42:23;7.20;;;6.53;;
11996;SDS011;6058;48.704;9.474;2023-08-17T19:44:54;6.72;;;6.13;;
11996;SDS011;6058;48.704;9.474;2023-08-17T19:47:35;9.40;;;6.70;;
11996;SDS011;6058;48.704;9.474;2023-08-17T19:50:15;7.25;;;6.55;;
11996;SDS011;6058;48.704;9.474;2023-08-17T19:52:42;7.15;;;6.45;;
11996;SDS011;6058;48.704;9.474;2023-08-17T19:55:09;8.05;;;6.43;;
11996;SDS011;6058;48.704;9.474;2023-08-17T19:57:37;8.13;;;6.47;;
11996;SDS011;6058;48.704;9.474;2023-08-17T20:00:06;7.82;;;6.05;;
11996;SDS011;6058;48.704;9.474;2023-08-17T20:02:36;8.23;;;5.78;;
11996;SDS011;6058;48.704;9.474;2023-08-17T20:05:03;7.10;;;5.80;;
11996;SDS011;6058;48.704;9.474;2023-08-17T20:07:31;9.63;;;6.18;;
11996;SDS011;6058;48.704;9.474;2023-08-17T20:09:59;6.50;;;5.07;;
11996;SDS011;6058;48.704;9.474;2023-08-17T20:12:27;6.15;;;5.55;;
11996;SDS011;6058;48.704;9.474;2023-08-17T20:14:54;6.80;;;5.20;;
11996;SDS011;6058;48.704;9.474;2023-08-17T20:17:23;6.03;;;4.45;;
11996;SDS011;6058;48.704;9.474;2023-08-17T20:19:52;5.13;;;4.55;;
11996;SDS011;6058;48.704;9.474;2023-08-17T20:22:26;5.82;;;4.75;;
11996;SDS011;6058;48.704;9.474;2023-08-17T20:24:54;5.00;;;4.50;;
11996;SDS011;6058;48.704;9.474;2023-08-17T20:27:23;4.40;;;4.00;;
11996;SDS011;6058;48.704;9.474;2023-08-17T20:29:51;6.40;;;4.80;;
11996;SDS011;6058;48.704;9.474;2023-08-17T20:32:18;5.93;;;4.28;;